sensor_id;sensor_type;location;lat;lon;timestamp;P1;durP1;ratioP1;P2;durP2;ratioP2
46363;SDS011;32071;49.036;9.344;2023-04-01T00:00:19;0.70;;;0.40;;
46363;SDS011;32071;49.036;9.344;2023-04-01T00:02:45;0.90;;;0.50;;
46363;SDS011;32071;49.036;9.344;2023-04-01T00:05:11;2.60;;;0.60;;
46363;SDS011;32071;49.036;9.344;2023-04-01T00:07:37;1.13;;;0.80;;
46363;SDS011;32071;49.036;9.344;2023-04-01T00:10:04;1.50;;;0.73;;
46363;SDS011;32071;49.036;9.344;2023-04-01T00:12:31;0.80;;;0.70;;
46363;SDS011;32071;49.036;9.344;2023-04-01T00:14:57;3.23;;;1.03;;
46363;SDS011;32071;49.036;9.344;2023-04-01T00:17:23;1.33;;;0.80;;
46363;SDS011;32071;49.036;9.344;2023-04-01T00:19:48;0.73;;;0.60;;
46363;SDS011;32071;49.036;9.344;2023-04-01T00:22:14;2.27;;;0.80;;
46363;SDS011;32071;49.036;9.344;2023-04-01T00:24:40;1.37;;;0.60;;
46363;SDS011;32071;49.036;9.344;2023-04-01T00:27:06;4.53;;;0.90;;
46363;SDS011;32071;49.036;9.344;2023-04-01T00:29:32;2.60;;;0.80;;
46363;SDS011;32071;49.036;9.344;2023-04-01T00:31:58;1.90;;;0.70;;
46363;SDS011;32071;49.036;9.344;2023-04-01T00:34:24;3.17;;;0.60;;
46363;SDS011;32071;49.036;9.344;2023-04-01T00:36:50;4.00;;;0.77;;
46363;SDS011;32071;49.036;9.344;2023-04-01T00:39:17;1.70;;;1.10;;
46363;SDS011;32071;49.036;9.344;2023-04-01T00:41:43;3.43;;;0.70;;
46363;SDS011;32071;49.036;9.344;2023-04-01T00:46:46;0.90;;;0.60;;
46363;SDS011;32071;49.036;9.344;2023-04-01T00:49:12;1.40;;;0.70;;
46363;SDS011;32071;49.036;9.344;2023-04-01T00:51:39;0.60;;;0.50;;
46363;SDS011;32071;49.036;9.344;2023-04-01T00:54:06;4.00;;;0.60;;
46363;SDS011;32071;49.036;9.344;2023-04-01T00:56:38;3.83;;;1.40;;
46363;SDS011;32071;49.036;9.344;2023-04-01T00:59:10;4.17;;;1.00;;
46363;SDS011;32071;49.036;9.344;2023-04-01T01:01:43;1.83;;;0.50;;
46363;SDS011;32071;49.036;9.344;2023-04-01T01:04:25;1.97;;;0.67;;
46363;SDS011;32071;49.036;9.344;2023-04-01T01:09:40;1.70;;;0.57;;
46363;SDS011;32071;49.036;9.344;2023-04-01T01:12:29;0.87;;;0.70;;
46363;SDS011;32071;49.036;9.344;2023-04-01T01:15:16;3.10;;;0.63;;
46363;SDS011;32071;49.036;9.344;2023-04-01T01:26:16;1.93;;;0.97;;
46363;SDS011;32071;49.036;9.344;2023-04-01T01:34:22;0.70;;;0.70;;
46363;SDS011;32071;49.036;9.344;2023-04-01T01:36:50;2.20;;;0.73;;
46363;SDS011;32071;49.036;9.344;2023-04-01T01:39:21;1.67;;;0.50;;
46363;SDS011;32071;49.036;9.344;2023-04-01T01:41:52;1.63;;;0.87;;
46363;SDS011;32071;49.036;9.344;2023-04-01T01:44:20;1.10;;;0.70;;
46363;SDS011;32071;49.036;9.344;2023-04-01T01:46:48;0.50;;;0.47;;
46363;SDS011;32071;49.036;9.344;2023-04-01T01:49:14;1.20;;;0.60;;
46363;SDS011;32071;49.036;9.344;2023-04-01T01:51:41;3.00;;;0.93;;
46363;SDS011;32071;49.036;9.344;2023-04-01T01:54:11;2.00;;;0.90;;
46363;SDS011;32071;49.036;9.344;2023-04-01T01:56:41;4.33;;;1.03;;
46363;SDS011;32071;49.036;9.344;2023-04-01T01:59:12;2.70;;;0.70;;
46363;SDS011;32071;49.036;9.344;2023-04-01T02:01:40;0.70;;;0.40;;
46363;SDS011;32071;49.036;9.344;2023-04-01T02:04:09;1.83;;;0.90;;
46363;SDS011;32071;49.036;9.344;2023-04-01T02:06:37;3.30;;;0.80;;
46363;SDS011;32071;49.036;9.344;2023-04-01T02:09:07;1.93;;;0.80;;
46363;SDS011;32071;49.036;9.344;2023-04-01T02:14:14;1.37;;;0.70;;
46363;SDS011;32071;49.036;9.344;2023-04-01T02:19:21;1.53;;;0.57;;
46363;SDS011;32071;49.036;9.344;2023-04-01T02:21:52;3.30;;;0.70;;
46363;SDS011;32071;49.036;9.344;2023-04-01T02:24:21;2.13;;;1.10;;
46363;SDS011;32071;49.036;9.344;2023-04-01T02:26:50;3.17;;;0.70;;
46363;SDS011;32071;49.036;9.344;2023-04-01T02:29:19;1.03;;;0.50;;
46363;SDS011;32071;49.036;9.344;2023-04-01T02:31:47;1.80;;;0.80;;
46363;SDS011;32071;49.036;9.344;2023-04-01T02:34:14;1.60;;;0.67;;
46363;SDS011;32071;49.036;9.344;2023-04-01T02:36:40;0.57;;;0.53;;
46363;SDS011;32071;49.036;9.344;2023-04-01T02:39:06;1.93;;;0.50;;
46363;SDS011;32071;49.036;9.344;2023-04-01T02:41:37;1.93;;;0.73;;
46363;SDS011;32071;49.036;9.344;2023-04-01T02:44:08;2.00;;;0.57;;
46363;SDS011;32071;49.036;9.344;2023-04-01T02:46:35;3.43;;;0.70;;
46363;SDS011;32071;49.036;9.344;2023-04-01T02:49:01;5.20;;;0.60;;
46363;SDS011;32071;49.036;9.344;2023-04-01T02:51:26;1.03;;;0.53;;
46363;SDS011;32071;49.036;9.344;2023-04-01T02:53:52;1.13;;;0.70;;
46363;SDS011;32071;49.036;9.344;2023-04-01T02:56:17;0.57;;;0.40;;
46363;SDS011;32071;49.036;9.344;2023-04-01T02:58:44;3.20;;;0.53;;
46363;SDS011;32071;49.036;9.344;2023-04-01T03:01:10;2.60;;;0.63;;
46363;SDS011;32071;49.036;9.344;2023-04-01T03:03:35;2.50;;;0.70;;
46363;SDS011;32071;49.036;9.344;2023-04-01T03:06:08;2.23;;;0.70;;
46363;SDS011;32071;49.036;9.344;2023-04-01T03:08:35;2.60;;;0.70;;
46363;SDS011;32071;49.036;9.344;2023-04-01T03:11:01;0.40;;;0.37;;
46363;SDS011;32071;49.036;9.344;2023-04-01T03:13:27;0.73;;;0.53;;
46363;SDS011;32071;49.036;9.344;2023-04-01T03:15:52;0.83;;;0.60;;
46363;SDS011;32071;49.036;9.344;2023-04-01T03:18:18;1.00;;;0.70;;
46363;SDS011;32071;49.036;9.344;2023-04-01T03:20:44;1.90;;;0.60;;
46363;SDS011;32071;49.036;9.344;2023-04-01T03:23:09;1.10;;;0.63;;
46363;SDS011;32071;49.036;9.344;2023-04-01T03:25:35;1.70;;;0.60;;
46363;SDS011;32071;49.036;9.344;2023-04-01T03:28:01;1.47;;;0.60;;
46363;SDS011;32071;49.036;9.344;2023-04-01T03:30:27;2.27;;;0.73;;
46363;SDS011;32071;49.036;9.344;2023-04-01T03:32:54;0.60;;;0.33;;
46363;SDS011;32071;49.036;9.344;2023-04-01T03:35:20;1.23;;;0.63;;
46363;SDS011;32071;49.036;9.344;2023-04-01T03:37:46;0.90;;;0.50;;
46363;SDS011;32071;49.036;9.344;2023-04-01T03:40:11;0.50;;;0.40;;
46363;SDS011;32071;49.036;9.344;2023-04-01T03:42:37;2.93;;;0.60;;
46363;SDS011;32071;49.036;9.344;2023-04-01T03:45:03;0.70;;;0.70;;
46363;SDS011;32071;49.036;9.344;2023-04-01T03:47:29;2.13;;;0.63;;
46363;SDS011;32071;49.036;9.344;2023-04-01T03:49:55;2.20;;;0.50;;
46363;SDS011;32071;49.036;9.344;2023-04-01T03:52:21;3.13;;;0.90;;
46363;SDS011;32071;49.036;9.344;2023-04-01T03:54:47;3.13;;;0.70;;
46363;SDS011;32071;49.036;9.344;2023-04-01T03:57:12;0.63;;;0.50;;
46363;SDS011;32071;49.036;9.344;2023-04-01T03:59:38;1.40;;;0.43;;
46363;SDS011;32071;49.036;9.344;2023-04-01T04:02:03;1.73;;;0.90;;
46363;SDS011;32071;49.036;9.344;2023-04-01T04:04:29;0.60;;;0.40;;
46363;SDS011;32071;49.036;9.344;2023-04-01T04:06:55;0.60;;;0.50;;
46363;SDS011;32071;49.036;9.344;2023-04-01T04:09:21;1.13;;;0.40;;
46363;SDS011;32071;49.036;9.344;2023-04-01T04:11:48;3.70;;;0.60;;
46363;SDS011;32071;49.036;9.344;2023-04-01T04:14:14;5.13;;;1.03;;
46363;SDS011;32071;49.036;9.344;2023-04-01T04:16:40;1.07;;;0.30;;
46363;SDS011;32071;49.036;9.344;2023-04-01T04:19:05;0.30;;;0.30;;
46363;SDS011;32071;49.036;9.344;2023-04-01T04:21:31;1.97;;;0.70;;
46363;SDS011;32071;49.036;9.344;2023-04-01T04:23:58;0.87;;;0.40;;
46363;SDS011;32071;49.036;9.344;2023-04-01T04:26:24;0.70;;;0.50;;
46363;SDS011;32071;49.036;9.344;2023-04-01T04:28:50;2.07;;;0.50;;
46363;SDS011;32071;49.036;9.344;2023-04-01T04:31:20;0.40;;;0.40;;
46363;SDS011;32071;49.036;9.344;2023-04-01T04:33:47;1.17;;;0.30;;
46363;SDS011;32071;49.036;9.344;2023-04-01T04:36:13;1.50;;;0.57;;
46363;SDS011;32071;49.036;9.344;2023-04-01T04:38:39;0.60;;;0.40;;
46363;SDS011;32071;49.036;9.344;2023-04-01T04:41:08;0.70;;;0.70;;
46363;SDS011;32071;49.036;9.344;2023-04-01T04:43:35;2.30;;;0.50;;
46363;SDS011;32071;49.036;9.344;2023-04-01T04:46:04;0.70;;;0.50;;
46363;SDS011;32071;49.036;9.344;2023-04-01T04:48:31;0.57;;;0.50;;
46363;SDS011;32071;49.036;9.344;2023-04-01T04:50:56;0.90;;;0.30;;
46363;SDS011;32071;49.036;9.344;2023-04-01T04:53:22;1.90;;;0.50;;
46363;SDS011;32071;49.036;9.344;2023-04-01T04:55:48;0.70;;;0.47;;
46363;SDS011;32071;49.036;9.344;2023-04-01T04:58:15;0.43;;;0.43;;
46363;SDS011;32071;49.036;9.344;2023-04-01T05:00:41;0.80;;;0.57;;
46363;SDS011;32071;49.036;9.344;2023-04-01T05:03:08;4.47;;;1.00;;
46363;SDS011;32071;49.036;9.344;2023-04-01T05:05:34;1.37;;;0.70;;
46363;SDS011;32071;49.036;9.344;2023-04-01T05:07:59;1.70;;;0.63;;
46363;SDS011;32071;49.036;9.344;2023-04-01T05:10:25;1.00;;;0.50;;
46363;SDS011;32071;49.036;9.344;2023-04-01T05:12:51;4.63;;;0.70;;
46363;SDS011;32071;49.036;9.344;2023-04-01T05:15:16;0.50;;;0.33;;
46363;SDS011;32071;49.036;9.344;2023-04-01T05:17:42;0.70;;;0.40;;
46363;SDS011;32071;49.036;9.344;2023-04-01T05:20:07;1.67;;;0.70;;
46363;SDS011;32071;49.036;9.344;2023-04-01T05:22:33;1.97;;;0.50;;
46363;SDS011;32071;49.036;9.344;2023-04-01T05:24:59;0.90;;;0.50;;
46363;SDS011;32071;49.036;9.344;2023-04-01T05:27:24;1.90;;;0.70;;
46363;SDS011;32071;49.036;9.344;2023-04-01T05:29:50;1.03;;;0.53;;
46363;SDS011;32071;49.036;9.344;2023-04-01T05:32:16;1.23;;;0.60;;
46363;SDS011;32071;49.036;9.344;2023-04-01T05:34:42;0.80;;;0.40;;
46363;SDS011;32071;49.036;9.344;2023-04-01T05:37:07;0.40;;;0.40;;
46363;SDS011;32071;49.036;9.344;2023-04-01T05:39:36;4.83;;;0.60;;
46363;SDS011;32071;49.036;9.344;2023-04-01T05:42:03;0.97;;;0.40;;
46363;SDS011;32071;49.036;9.344;2023-04-01T05:44:30;1.00;;;0.50;;
46363;SDS011;32071;49.036;9.344;2023-04-01T05:46:56;1.70;;;0.70;;
46363;SDS011;32071;49.036;9.344;2023-04-01T05:49:22;0.80;;;0.60;;
46363;SDS011;32071;49.036;9.344;2023-04-01T05:51:47;2.73;;;0.80;;
46363;SDS011;32071;49.036;9.344;2023-04-01T05:54:13;1.47;;;0.57;;
46363;SDS011;32071;49.036;9.344;2023-04-01T05:56:38;1.00;;;0.90;;
46363;SDS011;32071;49.036;9.344;2023-04-01T05:59:04;2.40;;;1.10;;
46363;SDS011;32071;49.036;9.344;2023-04-01T06:01:30;0.70;;;0.60;;
46363;SDS011;32071;49.036;9.344;2023-04-01T06:03:56;1.43;;;0.90;;
46363;SDS011;32071;49.036;9.344;2023-04-01T06:06:25;1.17;;;0.80;;
46363;SDS011;32071;49.036;9.344;2023-04-01T06:08:53;1.50;;;0.60;;
46363;SDS011;32071;49.036;9.344;2023-04-01T06:11:27;1.10;;;0.63;;
46363;SDS011;32071;49.036;9.344;2023-04-01T06:20:11;0.80;;;0.50;;
46363;SDS011;32071;49.036;9.344;2023-04-01T06:23:24;1.20;;;0.87;;
46363;SDS011;32071;49.036;9.344;2023-04-01T06:31:10;0.60;;;0.60;;
46363;SDS011;32071;49.036;9.344;2023-04-01T06:39:41;2.40;;;0.50;;
46363;SDS011;32071;49.036;9.344;2023-04-01T06:42:30;1.67;;;1.30;;
46363;SDS011;32071;49.036;9.344;2023-04-01T06:45:27;2.30;;;0.83;;
46363;SDS011;32071;49.036;9.344;2023-04-01T06:48:17;1.93;;;1.00;;
46363;SDS011;32071;49.036;9.344;2023-04-01T06:53:43;2.23;;;1.00;;
46363;SDS011;32071;49.036;9.344;2023-04-01T06:56:10;1.03;;;0.80;;
46363;SDS011;32071;49.036;9.344;2023-04-01T06:58:42;2.33;;;0.80;;
46363;SDS011;32071;49.036;9.344;2023-04-01T07:01:14;0.70;;;0.50;;
46363;SDS011;32071;49.036;9.344;2023-04-01T07:03:47;1.67;;;0.70;;
46363;SDS011;32071;49.036;9.344;2023-04-01T07:08:56;3.27;;;1.87;;
46363;SDS011;32071;49.036;9.344;2023-04-01T07:11:29;1.90;;;1.40;;
46363;SDS011;32071;49.036;9.344;2023-04-01T07:14:00;3.53;;;1.90;;
46363;SDS011;32071;49.036;9.344;2023-04-01T07:16:33;1.53;;;1.43;;
46363;SDS011;32071;49.036;9.344;2023-04-01T07:21:52;0.90;;;0.70;;
46363;SDS011;32071;49.036;9.344;2023-04-01T07:24:23;1.70;;;1.10;;
46363;SDS011;32071;49.036;9.344;2023-04-01T07:26:53;1.90;;;1.13;;
46363;SDS011;32071;49.036;9.344;2023-04-01T07:29:20;1.93;;;1.23;;
46363;SDS011;32071;49.036;9.344;2023-04-01T07:31:59;3.53;;;1.50;;
46363;SDS011;32071;49.036;9.344;2023-04-01T07:37:31;5.93;;;1.13;;
46363;SDS011;32071;49.036;9.344;2023-04-01T07:40:26;2.90;;;1.90;;
46363;SDS011;32071;49.036;9.344;2023-04-01T07:45:55;1.53;;;1.00;;
46363;SDS011;32071;49.036;9.344;2023-04-01T07:48:41;0.90;;;0.90;;
46363;SDS011;32071;49.036;9.344;2023-04-01T08:05:29;1.03;;;0.70;;
46363;SDS011;32071;49.036;9.344;2023-04-01T08:13:38;5.73;;;1.03;;
46363;SDS011;32071;49.036;9.344;2023-04-01T08:18:58;0.90;;;0.60;;
46363;SDS011;32071;49.036;9.344;2023-04-01T08:22:01;0.90;;;0.70;;
46363;SDS011;32071;49.036;9.344;2023-04-01T08:27:18;1.57;;;0.90;;
46363;SDS011;32071;49.036;9.344;2023-04-01T08:29:58;3.80;;;0.80;;
46363;SDS011;32071;49.036;9.344;2023-04-01T08:32:41;1.70;;;0.90;;
46363;SDS011;32071;49.036;9.344;2023-04-01T08:37:39;1.37;;;0.67;;
46363;SDS011;32071;49.036;9.344;2023-04-01T08:43:10;0.63;;;0.63;;
46363;SDS011;32071;49.036;9.344;2023-04-01T08:45:56;1.13;;;0.90;;
46363;SDS011;32071;49.036;9.344;2023-04-01T08:49:10;1.27;;;0.70;;
46363;SDS011;32071;49.036;9.344;2023-04-01T08:54:27;2.13;;;0.70;;
46363;SDS011;32071;49.036;9.344;2023-04-01T09:02:49;1.63;;;1.07;;
46363;SDS011;32071;49.036;9.344;2023-04-01T09:08:26;1.87;;;1.70;;
46363;SDS011;32071;49.036;9.344;2023-04-01T09:11:08;2.50;;;1.20;;
46363;SDS011;32071;49.036;9.344;2023-04-01T09:13:48;2.40;;;1.30;;
46363;SDS011;32071;49.036;9.344;2023-04-01T09:53:24;1.33;;;0.97;;
46363;SDS011;32071;49.036;9.344;2023-04-01T09:59:08;1.03;;;0.80;;
46363;SDS011;32071;49.036;9.344;2023-04-01T10:13:25;1.47;;;1.37;;
46363;SDS011;32071;49.036;9.344;2023-04-01T10:16:12;1.30;;;1.20;;
46363;SDS011;32071;49.036;9.344;2023-04-01T10:18:56;1.23;;;0.80;;
46363;SDS011;32071;49.036;9.344;2023-04-01T10:27:41;0.57;;;0.57;;
46363;SDS011;32071;49.036;9.344;2023-04-01T10:57:24;1.97;;;1.10;;
46363;SDS011;32071;49.036;9.344;2023-04-01T11:00:44;1.80;;;0.80;;
46363;SDS011;32071;49.036;9.344;2023-04-01T11:03:15;0.70;;;0.63;;
46363;SDS011;32071;49.036;9.344;2023-04-01T11:09:19;1.30;;;1.20;;
46363;SDS011;32071;49.036;9.344;2023-04-01T11:34:13;1.43;;;1.00;;
46363;SDS011;32071;49.036;9.344;2023-04-01T11:42:28;0.80;;;0.60;;
46363;SDS011;32071;49.036;9.344;2023-04-01T11:45:18;0.50;;;0.40;;
46363;SDS011;32071;49.036;9.344;2023-04-01T11:53:47;0.87;;;0.87;;
46363;SDS011;32071;49.036;9.344;2023-04-01T12:01:58;1.40;;;1.10;;
46363;SDS011;32071;49.036;9.344;2023-04-01T12:04:33;1.23;;;0.80;;
46363;SDS011;32071;49.036;9.344;2023-04-01T12:07:24;0.50;;;0.43;;
46363;SDS011;32071;49.036;9.344;2023-04-01T12:12:59;0.70;;;0.63;;
46363;SDS011;32071;49.036;9.344;2023-04-01T12:18:40;0.50;;;0.50;;
46363;SDS011;32071;49.036;9.344;2023-04-01T12:29:51;1.23;;;1.00;;
46363;SDS011;32071;49.036;9.344;2023-04-01T12:35:21;1.30;;;0.57;;
46363;SDS011;32071;49.036;9.344;2023-04-01T12:43:01;1.57;;;1.10;;
46363;SDS011;32071;49.036;9.344;2023-04-01T12:56:31;1.60;;;1.50;;
46363;SDS011;32071;49.036;9.344;2023-04-01T12:59:21;1.27;;;0.53;;
46363;SDS011;32071;49.036;9.344;2023-04-01T13:01:55;1.73;;;1.13;;
46363;SDS011;32071;49.036;9.344;2023-04-01T13:10:13;0.57;;;0.43;;
46363;SDS011;32071;49.036;9.344;2023-04-01T13:15:39;0.63;;;0.40;;
46363;SDS011;32071;49.036;9.344;2023-04-01T13:28:39;0.40;;;0.40;;
46363;SDS011;32071;49.036;9.344;2023-04-01T13:36:56;0.67;;;0.67;;
46363;SDS011;32071;49.036;9.344;2023-04-01T13:39:41;0.67;;;0.67;;
46363;SDS011;32071;49.036;9.344;2023-04-01T13:42:15;8.97;;;4.90;;
46363;SDS011;32071;49.036;9.344;2023-04-01T13:58:23;3.20;;;2.40;;
46363;SDS011;32071;49.036;9.344;2023-04-01T14:03:50;3.00;;;1.70;;
46363;SDS011;32071;49.036;9.344;2023-04-01T14:09:34;1.40;;;1.30;;
46363;SDS011;32071;49.036;9.344;2023-04-01T14:12:30;0.63;;;0.37;;
46363;SDS011;32071;49.036;9.344;2023-04-01T14:17:59;0.80;;;0.73;;
46363;SDS011;32071;49.036;9.344;2023-04-01T14:21:21;2.80;;;1.80;;
46363;SDS011;32071;49.036;9.344;2023-04-01T14:29:38;1.47;;;1.37;;
46363;SDS011;32071;49.036;9.344;2023-04-01T14:46:14;4.13;;;3.73;;
46363;SDS011;32071;49.036;9.344;2023-04-01T14:49:18;1.13;;;1.00;;
46363;SDS011;32071;49.036;9.344;2023-04-01T14:58:00;7.57;;;6.77;;
46363;SDS011;32071;49.036;9.344;2023-04-01T15:00:56;4.07;;;2.60;;
46363;SDS011;32071;49.036;9.344;2023-04-01T15:03:29;3.60;;;2.23;;
46363;SDS011;32071;49.036;9.344;2023-04-01T15:06:27;3.03;;;2.10;;
46363;SDS011;32071;49.036;9.344;2023-04-01T15:14:57;2.40;;;1.57;;
46363;SDS011;32071;49.036;9.344;2023-04-01T15:18:38;8.23;;;5.80;;
46363;SDS011;32071;49.036;9.344;2023-04-01T15:29:01;2.00;;;1.70;;
46363;SDS011;32071;49.036;9.344;2023-04-01T15:31:50;4.20;;;2.40;;
46363;SDS011;32071;49.036;9.344;2023-04-01T15:34:56;2.33;;;2.13;;
46363;SDS011;32071;49.036;9.344;2023-04-01T15:37:37;1.57;;;1.40;;
46363;SDS011;32071;49.036;9.344;2023-04-01T15:48:31;8.33;;;5.20;;
46363;SDS011;32071;49.036;9.344;2023-04-01T15:51:14;2.37;;;1.60;;
46363;SDS011;32071;49.036;9.344;2023-04-01T15:53:47;2.37;;;2.17;;
46363;SDS011;32071;49.036;9.344;2023-04-01T15:56:41;2.70;;;2.00;;
46363;SDS011;32071;49.036;9.344;2023-04-01T16:05:00;1.53;;;1.43;;
46363;SDS011;32071;49.036;9.344;2023-04-01T16:10:50;1.73;;;1.30;;
46363;SDS011;32071;49.036;9.344;2023-04-01T16:16:00;1.03;;;0.93;;
46363;SDS011;32071;49.036;9.344;2023-04-01T16:29:48;2.27;;;1.03;;
46363;SDS011;32071;49.036;9.344;2023-04-01T16:35:23;5.30;;;1.83;;
46363;SDS011;32071;49.036;9.344;2023-04-01T16:38:04;1.03;;;0.80;;
46363;SDS011;32071;49.036;9.344;2023-04-01T16:46:20;1.20;;;1.10;;
46363;SDS011;32071;49.036;9.344;2023-04-01T16:56:54;1.53;;;1.30;;
46363;SDS011;32071;49.036;9.344;2023-04-01T17:02:08;2.00;;;1.50;;
46363;SDS011;32071;49.036;9.344;2023-04-01T17:04:43;1.30;;;1.17;;
46363;SDS011;32071;49.036;9.344;2023-04-01T17:07:31;0.90;;;0.70;;
46363;SDS011;32071;49.036;9.344;2023-04-01T17:13:24;2.00;;;1.83;;
46363;SDS011;32071;49.036;9.344;2023-04-01T17:15:58;0.80;;;0.80;;
46363;SDS011;32071;49.036;9.344;2023-04-01T17:21:16;1.30;;;1.20;;
46363;SDS011;32071;49.036;9.344;2023-04-01T17:23:53;1.70;;;1.60;;
46363;SDS011;32071;49.036;9.344;2023-04-01T17:26:34;1.80;;;1.10;;
46363;SDS011;32071;49.036;9.344;2023-04-01T17:34:46;3.07;;;2.00;;
46363;SDS011;32071;49.036;9.344;2023-04-01T17:42:42;8.80;;;3.60;;
46363;SDS011;32071;49.036;9.344;2023-04-01T17:45:28;9.33;;;4.20;;
46363;SDS011;32071;49.036;9.344;2023-04-01T17:48:05;6.57;;;4.20;;
46363;SDS011;32071;49.036;9.344;2023-04-01T17:56:32;3.70;;;1.90;;
46363;SDS011;32071;49.036;9.344;2023-04-01T17:59:31;3.03;;;1.90;;
46363;SDS011;32071;49.036;9.344;2023-04-01T18:08:13;2.83;;;2.00;;
46363;SDS011;32071;49.036;9.344;2023-04-01T18:16:51;2.90;;;1.40;;
46363;SDS011;32071;49.036;9.344;2023-04-01T18:19:47;1.77;;;1.30;;
46363;SDS011;32071;49.036;9.344;2023-04-01T18:22:39;2.60;;;1.20;;
46363;SDS011;32071;49.036;9.344;2023-04-01T18:30:41;1.30;;;1.20;;
46363;SDS011;32071;49.036;9.344;2023-04-01T18:35:52;2.33;;;1.93;;
46363;SDS011;32071;49.036;9.344;2023-04-01T18:38:31;1.90;;;1.30;;
46363;SDS011;32071;49.036;9.344;2023-04-01T18:43:40;3.30;;;3.10;;
46363;SDS011;32071;49.036;9.344;2023-04-01T18:46:30;3.33;;;2.87;;
46363;SDS011;32071;49.036;9.344;2023-04-01T18:57:18;2.43;;;2.23;;
46363;SDS011;32071;49.036;9.344;2023-04-01T19:02:28;8.60;;;5.00;;
46363;SDS011;32071;49.036;9.344;2023-04-01T19:05:09;15.67;;;9.93;;
46363;SDS011;32071;49.036;9.344;2023-04-01T19:07:41;7.60;;;4.73;;
46363;SDS011;32071;49.036;9.344;2023-04-01T19:10:15;7.90;;;4.67;;
46363;SDS011;32071;49.036;9.344;2023-04-01T19:26:26;3.17;;;2.80;;
46363;SDS011;32071;49.036;9.344;2023-04-01T19:29:10;4.43;;;3.50;;
46363;SDS011;32071;49.036;9.344;2023-04-01T19:35:06;4.33;;;3.27;;
46363;SDS011;32071;49.036;9.344;2023-04-01T19:46:23;4.53;;;2.10;;
46363;SDS011;32071;49.036;9.344;2023-04-01T19:54:43;4.00;;;3.60;;
46363;SDS011;32071;49.036;9.344;2023-04-01T19:59:56;6.60;;;4.20;;
46363;SDS011;32071;49.036;9.344;2023-04-01T20:02:52;4.80;;;3.27;;
46363;SDS011;32071;49.036;9.344;2023-04-01T20:11:17;7.57;;;4.63;;
46363;SDS011;32071;49.036;9.344;2023-04-01T20:16:49;3.37;;;2.93;;
46363;SDS011;32071;49.036;9.344;2023-04-01T20:19:35;4.67;;;2.93;;
46363;SDS011;32071;49.036;9.344;2023-04-01T20:22:09;5.60;;;3.33;;
46363;SDS011;32071;49.036;9.344;2023-04-01T20:24:50;4.63;;;3.10;;
46363;SDS011;32071;49.036;9.344;2023-04-01T20:27:18;5.80;;;3.50;;
46363;SDS011;32071;49.036;9.344;2023-04-01T20:29:56;5.30;;;3.70;;
46363;SDS011;32071;49.036;9.344;2023-04-01T20:32:39;4.27;;;2.70;;
46363;SDS011;32071;49.036;9.344;2023-04-01T20:35:26;3.70;;;2.73;;
46363;SDS011;32071;49.036;9.344;2023-04-01T20:38:14;3.27;;;2.40;;
46363;SDS011;32071;49.036;9.344;2023-04-01T20:40:51;3.97;;;3.00;;
46363;SDS011;32071;49.036;9.344;2023-04-01T20:43:35;4.83;;;3.40;;
46363;SDS011;32071;49.036;9.344;2023-04-01T20:46:22;5.40;;;3.20;;
46363;SDS011;32071;49.036;9.344;2023-04-01T20:51:53;6.27;;;4.30;;
46363;SDS011;32071;49.036;9.344;2023-04-01T21:02:52;7.57;;;3.70;;
46363;SDS011;32071;49.036;9.344;2023-04-01T21:05:59;4.73;;;3.00;;
46363;SDS011;32071;49.036;9.344;2023-04-01T21:33:56;7.10;;;5.10;;
46363;SDS011;32071;49.036;9.344;2023-04-01T21:42:02;5.47;;;3.17;;
46363;SDS011;32071;49.036;9.344;2023-04-01T21:55:36;7.73;;;3.20;;
46363;SDS011;32071;49.036;9.344;2023-04-01T22:04:13;4.23;;;3.80;;
46363;SDS011;32071;49.036;9.344;2023-04-01T22:07:19;5.30;;;3.53;;
46363;SDS011;32071;49.036;9.344;2023-04-01T22:12:36;5.17;;;3.23;;
46363;SDS011;32071;49.036;9.344;2023-04-01T22:20:49;4.27;;;3.30;;
46363;SDS011;32071;49.036;9.344;2023-04-01T22:26:27;3.90;;;2.30;;
46363;SDS011;32071;49.036;9.344;2023-04-01T22:34:36;2.90;;;2.40;;
46363;SDS011;32071;49.036;9.344;2023-04-01T22:37:06;2.37;;;2.17;;
46363;SDS011;32071;49.036;9.344;2023-04-01T22:42:44;2.53;;;2.20;;
46363;SDS011;32071;49.036;9.344;2023-04-01T22:50:22;2.93;;;2.27;;
46363;SDS011;32071;49.036;9.344;2023-04-01T22:53:17;2.23;;;2.03;;
46363;SDS011;32071;49.036;9.344;2023-04-01T22:55:46;2.63;;;2.30;;
46363;SDS011;32071;49.036;9.344;2023-04-01T22:58:16;1.80;;;1.70;;
46363;SDS011;32071;49.036;9.344;2023-04-01T23:01:14;2.90;;;1.60;;
46363;SDS011;32071;49.036;9.344;2023-04-01T23:03:42;3.10;;;2.10;;
46363;SDS011;32071;49.036;9.344;2023-04-01T23:06:13;2.30;;;1.53;;
46363;SDS011;32071;49.036;9.344;2023-04-01T23:08:53;2.23;;;1.80;;
46363;SDS011;32071;49.036;9.344;2023-04-01T23:16:56;1.03;;;0.93;;
46363;SDS011;32071;49.036;9.344;2023-04-01T23:19:59;1.67;;;1.10;;
46363;SDS011;32071;49.036;9.344;2023-04-01T23:38:39;1.33;;;0.83;;
46363;SDS011;32071;49.036;9.344;2023-04-01T23:41:15;1.13;;;0.87;;
46363;SDS011;32071;49.036;9.344;2023-04-01T23:43:50;2.93;;;0.60;;
46363;SDS011;32071;49.036;9.344;2023-04-01T23:46:26;1.10;;;0.90;;
46363;SDS011;32071;49.036;9.344;2023-04-01T23:48:54;0.90;;;0.80;;
46363;SDS011;32071;49.036;9.344;2023-04-01T23:51:27;1.40;;;0.87;;
46363;SDS011;32071;49.036;9.344;2023-04-01T23:54:02;1.37;;;0.93;;
46363;SDS011;32071;49.036;9.344;2023-04-01T23:56:39;0.90;;;0.70;;
46363;SDS011;32071;49.036;9.344;2023-04-01T23:59:19;1.00;;;0.90;;
